SBOSBO TRN / LIMF
Speedbird OnlineSpeedbird Online TRN / LIMF

Turin Airport
15:42 11.2°C

Location Torino, Italy
Latitude: 45.200802
Longitude: 7.64963
Web Airport Website | Wikipedia
Altitude 301 Meter / 989 Feet
Distance 893 KM / 555 Miles
from London.
Time Zone UTC +1 hours (Europe/Rome)
Codes IATA: TRN
ICAO: LIMF
Currency £1 equals EUR 1.14
Runways
RunwayLength (m)Surface
183300Asphalt
363300Asphalt
Radio
TypeDescriptionFrequency
APPAPP129.275
APPAPP23.44
ATISATIS120.475
GNDGND121.7
TWRTWR118.5
Live ATC
METAR LIMF 311420Z 13003KT 090V180 CAVOK 12/M03 Q1021
TAF TAF LIMF 311100Z 3112/0112 VRB05KT CAVOK
Weather As Of 31 Jan 2023 15:42
Description Clear sky
Wind 7 km/h from South (200°)
Cloud Cover 0%
Precipitation Rain: none, Snow: none
Sunrise 07:51
Sunset 17:33
Lounges Piemonte Lounge , Main Terminal
Rotations During the last 90 days there were
170 flights from LGW
168 flights to LGW



Support Speedbird Online

© 2017-2023 Speedbird Online